createdAt,value
2022-08-03T00:01:49.424Z,1.30
2022-08-03T00:04:16.046Z,1.35
2022-08-03T00:06:42.493Z,1.17
2022-08-03T00:09:09.132Z,1.20
2022-08-03T00:11:36.495Z,1.20
2022-08-03T00:14:04.979Z,1.38
2022-08-03T00:16:31.624Z,1.42
2022-08-03T00:18:58.529Z,1.45
2022-08-03T00:21:27.931Z,1.80
2022-08-03T00:23:54.639Z,1.30
2022-08-03T00:26:21.983Z,1.00
2022-08-03T00:28:51.156Z,1.58
2022-08-03T00:31:22.312Z,1.67
2022-08-03T00:34:04.572Z,1.50
2022-08-03T00:36:32.806Z,1.40
2022-08-03T00:39:01.449Z,1.40
2022-08-03T00:41:28.187Z,1.30
2022-08-03T00:43:54.825Z,1.55
2022-08-03T00:46:22.371Z,1.58
2022-08-03T00:48:53.194Z,1.42
2022-08-03T00:51:21.594Z,1.50
2022-08-03T00:53:48.194Z,1.40
2022-08-03T00:56:15.961Z,1.50
2022-08-03T01:01:12.327Z,1.00
2022-08-03T01:03:39.205Z,1.30
2022-08-03T01:06:18.721Z,1.58
2022-08-03T01:09:22.061Z,1.95
2022-08-03T01:12:01.016Z,1.25
2022-08-03T01:14:38.209Z,2.28
2022-08-03T01:17:22.654Z,1.38
2022-08-03T01:19:56.179Z,1.27
2022-08-03T01:22:49.996Z,1.60
2022-08-03T01:25:32.426Z,1.30
2022-08-03T01:28:17.500Z,1.60
2022-08-03T01:30:46.777Z,1.60
2022-08-03T01:33:19.116Z,2.03
2022-08-03T01:35:50.682Z,1.80
2022-08-03T01:38:47.678Z,2.08
2022-08-03T01:41:18.791Z,1.92
2022-08-03T01:44:01.242Z,1.45
2022-08-03T01:46:37.517Z,1.80
2022-08-03T01:49:09.446Z,1.65
2022-08-03T01:51:57.850Z,1.83
2022-08-03T01:54:27.045Z,2.00
2022-08-03T01:56:56.776Z,1.58
2022-08-03T01:59:26.297Z,1.77
2022-08-03T02:02:28.812Z,1.80
2022-08-03T02:04:43.702Z,1.40
2022-08-03T02:07:12.008Z,2.28
2022-08-03T02:09:41.464Z,1.73
2022-08-03T02:12:12.199Z,1.95
2022-08-03T02:14:40.871Z,1.48
2022-08-03T02:17:07.817Z,1.58
2022-08-03T02:19:36.018Z,1.83
2022-08-03T02:22:04.852Z,1.50
2022-08-03T02:24:31.970Z,1.67
2022-08-03T02:26:59.804Z,1.45
2022-08-03T02:32:32.593Z,1.13
2022-08-03T02:35:01.243Z,1.92
2022-08-03T02:37:34.210Z,2.65
2022-08-03T02:40:04.898Z,1.80
2022-08-03T02:42:36.820Z,1.80
2022-08-03T02:45:07.188Z,1.70
2022-08-03T02:47:54.241Z,2.10
2022-08-03T02:50:22.869Z,1.33
2022-08-03T02:52:51.105Z,1.38
2022-08-03T02:55:20.758Z,2.10
2022-08-03T02:57:48.165Z,1.80
2022-08-03T03:00:27.528Z,3.03
2022-08-03T03:02:57.920Z,2.35
2022-08-03T03:05:52.410Z,2.03
2022-08-03T03:08:18.630Z,2.13
2022-08-03T03:10:48.172Z,2.17
2022-08-03T03:13:16.193Z,2.00
2022-08-03T03:15:45.485Z,2.83
2022-08-03T03:18:12.913Z,1.80
2022-08-03T03:20:41.060Z,2.05
2022-08-03T03:23:09.638Z,2.17
2022-08-03T03:25:36.622Z,2.47
2022-08-03T03:28:06.348Z,2.00
2022-08-03T03:30:33.416Z,2.20
2022-08-03T03:33:00.079Z,2.88
2022-08-03T03:35:27.933Z,2.20
2022-08-03T03:40:23.608Z,2.28
2022-08-03T03:42:50.539Z,2.75
2022-08-03T03:45:17.971Z,1.63
2022-08-03T03:47:44.613Z,2.60
2022-08-03T03:50:15.755Z,2.20
2022-08-03T03:52:42.244Z,2.40
2022-08-03T03:55:08.898Z,2.80
2022-08-03T03:57:35.379Z,2.53
2022-08-03T04:00:02.229Z,2.20
2022-08-03T04:02:28.740Z,2.40
2022-08-03T04:05:13.977Z,3.15
2022-08-03T04:08:15.606Z,2.60
2022-08-03T04:10:58.443Z,3.50
2022-08-03T04:16:13.069Z,2.38
2022-08-03T04:18:43.251Z,2.53
2022-08-03T04:21:12.945Z,2.75
2022-08-03T04:23:44.597Z,3.05
2022-08-03T04:26:13.489Z,2.10
2022-08-03T04:28:43.448Z,2.13
2022-08-03T04:31:10.238Z,2.58
2022-08-03T04:33:39.523Z,2.50
2022-08-03T04:36:08.932Z,2.97
2022-08-03T04:42:02.257Z,2.33
2022-08-03T04:44:40.456Z,2.95
2022-08-03T04:47:07.464Z,2.80
2022-08-03T04:49:36.613Z,3.20
2022-08-03T04:52:03.765Z,3.83
2022-08-03T04:54:30.697Z,3.55
2022-08-03T04:56:57.198Z,3.92
2022-08-03T04:59:23.835Z,3.25
2022-08-03T05:01:50.378Z,3.67
2022-08-03T05:04:16.866Z,3.88
2022-08-03T05:06:48.023Z,3.60
2022-08-03T05:09:14.914Z,3.67
2022-08-03T05:11:41.418Z,2.97
2022-08-03T05:14:07.927Z,3.13
2022-08-03T05:16:34.612Z,3.25
2022-08-03T05:19:01.206Z,3.45
2022-08-03T05:21:50.395Z,3.92
2022-08-03T05:24:14.088Z,3.30
2022-08-03T05:26:40.611Z,4.93
2022-08-03T05:29:07.298Z,4.80
2022-08-03T05:31:36.838Z,3.92
2022-08-03T05:34:03.358Z,5.15
2022-08-03T05:36:29.810Z,4.25
2022-08-03T05:39:00.809Z,4.35
2022-08-03T05:41:36.602Z,5.22
2022-08-03T05:44:04.157Z,4.35
2022-08-03T05:46:30.547Z,4.30
2022-08-03T05:48:57.032Z,5.40
2022-08-03T05:51:23.540Z,7.53
2022-08-03T05:53:49.945Z,6.38
2022-08-03T05:56:17.031Z,5.72
2022-08-03T05:58:45.307Z,6.75
2022-08-03T06:01:11.935Z,6.45
2022-08-03T06:03:38.419Z,5.72
2022-08-03T06:06:04.952Z,5.85
2022-08-03T06:08:31.476Z,4.78
2022-08-03T06:11:00.965Z,4.82
2022-08-03T06:13:27.477Z,6.65
2022-08-03T06:15:53.909Z,5.88
2022-08-03T06:18:24.502Z,7.20
2022-08-03T06:20:52.311Z,7.28
2022-08-03T06:23:19.021Z,6.55
2022-08-03T06:25:45.995Z,7.38
2022-08-03T06:28:51.705Z,6.05
2022-08-03T06:34:30.933Z,7.50
2022-08-03T06:36:20.543Z,7.35
2022-08-03T06:38:49.926Z,6.85
2022-08-03T06:41:16.551Z,8.02
2022-08-03T06:44:03.734Z,8.13
2022-08-03T06:46:29.474Z,8.45
2022-08-03T06:48:57.183Z,8.73
2022-08-03T06:52:03.797Z,8.05
2022-08-03T06:54:10.827Z,9.32
2022-08-03T06:56:37.294Z,8.48
2022-08-03T06:59:03.813Z,9.48
2022-08-03T07:01:32.611Z,9.23
2022-08-03T07:04:00.469Z,9.52
2022-08-03T07:08:57.717Z,8.73
2022-08-03T07:11:25.906Z,8.73
2022-08-03T07:13:52.429Z,8.93
2022-08-03T07:16:19.049Z,10.40
2022-08-03T07:18:45.562Z,10.02
2022-08-03T07:21:12.792Z,9.80
2022-08-03T07:23:39.312Z,10.00
2022-08-03T07:26:05.925Z,10.40
2022-08-03T07:28:35.278Z,11.00
2022-08-03T07:31:01.746Z,11.27
2022-08-03T07:33:28.340Z,10.88
2022-08-03T07:35:54.794Z,10.80
2022-08-03T07:38:21.383Z,11.88
2022-08-03T07:40:47.945Z,11.35
2022-08-03T07:43:14.488Z,11.65
2022-08-03T07:45:41.101Z,12.80
2022-08-03T07:48:11.965Z,10.82
2022-08-03T07:50:38.986Z,9.80
2022-08-03T07:53:05.731Z,10.85
2022-08-03T07:55:32.209Z,12.20
2022-08-03T07:58:21.921Z,12.27
2022-08-03T08:00:53.504Z,12.18
2022-08-03T08:03:21.818Z,12.68
2022-08-03T08:05:49.212Z,12.05
2022-08-03T08:08:15.765Z,12.55
2022-08-03T08:10:42.218Z,12.75
2022-08-03T08:13:24.742Z,11.75
2022-08-03T08:15:51.234Z,11.02
2022-08-03T08:20:58.955Z,10.82
2022-08-03T08:23:43.654Z,14.20
2022-08-03T08:26:11.004Z,11.55
2022-08-03T08:28:37.493Z,12.43
2022-08-03T08:31:04.105Z,13.05
2022-08-03T08:34:01.012Z,12.30
2022-08-03T08:36:17.446Z,12.52
2022-08-03T08:38:45.231Z,11.93
2022-08-03T08:41:14.223Z,12.30
2022-08-03T08:43:41.551Z,12.35
2022-08-03T08:46:23.643Z,11.68
2022-08-03T08:48:51.961Z,11.23
2022-08-03T08:51:20.552Z,10.82
2022-08-03T08:53:51.625Z,11.52
2022-08-03T08:58:59.080Z,11.38
2022-08-03T09:01:26.532Z,10.52
2022-08-03T09:03:54.294Z,11.98
2022-08-03T09:06:22.898Z,10.88
2022-08-03T09:08:49.574Z,13.13
2022-08-03T09:11:16.068Z,11.73
2022-08-03T09:13:42.823Z,13.40
2022-08-03T09:16:17.624Z,12.02
2022-08-03T09:18:47.634Z,11.90
2022-08-03T09:21:33.610Z,11.48
2022-08-03T09:24:05.648Z,12.80
2022-08-03T09:26:35.287Z,11.68
2022-08-03T09:29:13.531Z,11.95
2022-08-03T09:31:44.524Z,11.55
2022-08-03T09:34:17.701Z,10.80
2022-08-03T09:36:48.838Z,11.77
2022-08-03T09:39:17.496Z,12.65
2022-08-03T09:41:48.604Z,11.10
2022-08-03T09:44:25.315Z,10.73
2022-08-03T09:46:56.718Z,9.95
2022-08-03T09:49:24.381Z,9.90
2022-08-03T09:52:31.676Z,11.13
2022-08-03T09:54:38.392Z,10.25
2022-08-03T09:57:04.924Z,10.70
2022-08-03T09:59:33.864Z,11.27
2022-08-03T10:02:01.744Z,12.68
2022-08-03T10:04:28.645Z,11.18
2022-08-03T10:07:06.976Z,10.32
2022-08-03T10:09:33.516Z,10.68
2022-08-03T10:12:08.542Z,11.40
2022-08-03T10:14:37.647Z,11.75
2022-08-03T10:17:04.485Z,10.77
2022-08-03T10:19:31.146Z,11.68
2022-08-03T10:22:23.333Z,11.50
2022-08-03T10:24:56.305Z,10.77
2022-08-03T10:27:25.037Z,11.70
2022-08-03T10:29:55.018Z,10.13
2022-08-03T10:32:28.793Z,10.80
2022-08-03T10:35:04.028Z,9.93
2022-08-03T10:37:57.353Z,9.65
2022-08-03T10:43:21.960Z,10.00
2022-08-03T10:45:49.077Z,11.07
2022-08-03T10:48:17.214Z,10.88
2022-08-03T10:50:44.662Z,11.70
2022-08-03T10:53:11.150Z,11.23
2022-08-03T10:56:05.615Z,9.45
2022-08-03T10:58:57.014Z,10.57
2022-08-03T11:01:58.498Z,9.70
2022-08-03T11:04:29.176Z,9.55
2022-08-03T11:07:15.800Z,10.32
2022-08-03T11:09:50.463Z,10.63
2022-08-03T11:12:31.177Z,10.23
2022-08-03T11:15:07.160Z,9.32
2022-08-03T11:17:45.944Z,8.57
2022-08-03T11:20:49.929Z,8.35
2022-08-03T11:23:20.260Z,9.27
2022-08-03T11:26:13.303Z,8.88
2022-08-03T11:28:41.050Z,7.32
2022-08-03T11:31:46.679Z,7.47
2022-08-03T11:34:10.607Z,8.40
2022-08-03T11:37:14.758Z,8.45
2022-08-03T11:39:46.335Z,8.10
2022-08-03T11:42:25.399Z,8.15
2022-08-03T11:44:56.583Z,8.90
2022-08-03T11:47:25.628Z,9.48
2022-08-03T11:49:57.297Z,8.48
2022-08-03T11:52:26.966Z,8.18
2022-08-03T11:54:56.592Z,8.38
2022-08-03T11:59:16.850Z,7.70
2022-08-03T12:03:07.547Z,7.57
2022-08-03T12:05:34.053Z,7.15
2022-08-03T12:08:03.971Z,6.00
2022-08-03T12:10:33.018Z,6.28
2022-08-03T12:13:01.244Z,7.30
2022-08-03T12:15:33.973Z,7.75
2022-08-03T12:18:01.937Z,6.78
2022-08-03T12:20:34.874Z,6.00
2022-08-03T12:23:04.361Z,5.78
2022-08-03T12:25:38.663Z,5.47
2022-08-03T12:28:35.836Z,5.72
2022-08-03T12:31:02.500Z,4.65
2022-08-03T12:33:29.282Z,4.18
2022-08-03T12:36:08.302Z,4.10
2022-08-03T12:38:39.541Z,3.60
2022-08-03T12:41:08.734Z,3.85
2022-08-03T12:43:39.409Z,4.05
2022-08-03T12:46:15.530Z,4.28
2022-08-03T12:49:06.612Z,4.82
2022-08-03T12:51:43.686Z,5.10
2022-08-03T12:54:16.724Z,5.57
2022-08-03T12:57:16.339Z,5.13
2022-08-03T12:59:53.082Z,4.88
2022-08-03T13:02:23.735Z,3.97
2022-08-03T13:07:41.373Z,4.28
2022-08-03T13:10:26.950Z,4.60
2022-08-03T13:12:53.611Z,4.50
2022-08-03T13:15:20.187Z,3.40
2022-08-03T13:17:46.679Z,3.97
2022-08-03T13:20:13.375Z,3.22
2022-08-03T13:22:39.901Z,2.20
2022-08-03T13:25:06.594Z,2.70
2022-08-03T13:28:04.259Z,2.58
2022-08-03T13:30:28.191Z,3.13
2022-08-03T13:32:58.564Z,2.10
2022-08-03T13:35:25.383Z,1.90
2022-08-03T13:37:51.900Z,1.60
2022-08-03T13:40:18.456Z,2.00
2022-08-03T13:42:50.039Z,2.05
2022-08-03T13:45:16.547Z,1.73
2022-08-03T13:47:43.199Z,1.80
2022-08-03T13:50:09.897Z,1.55
2022-08-03T13:52:36.631Z,2.05
2022-08-03T13:55:05.067Z,1.52
2022-08-03T13:58:03.515Z,1.60
2022-08-03T14:00:28.212Z,1.40
2022-08-03T14:05:42.821Z,1.42
2022-08-03T14:08:10.290Z,1.42
2022-08-03T14:10:38.743Z,1.17
2022-08-03T14:13:06.049Z,1.33
2022-08-03T14:18:04.843Z,1.23
2022-08-03T14:20:46.976Z,1.80
2022-08-03T14:23:17.414Z,1.13
2022-08-03T14:25:51.961Z,1.90
2022-08-03T14:28:20.593Z,1.42
2022-08-03T14:30:47.804Z,1.77
2022-08-03T14:33:14.772Z,1.40
2022-08-03T14:35:41.220Z,1.10
2022-08-03T14:38:07.725Z,1.33
2022-08-03T14:40:34.243Z,1.05
2022-08-03T14:43:00.858Z,2.30
2022-08-03T14:45:27.651Z,1.27
2022-08-03T14:50:10.424Z,2.53
2022-08-03T14:50:44.459Z,1.30
2022-08-03T14:53:13.665Z,1.38
2022-08-03T14:55:50.334Z,1.60
2022-08-03T14:58:20.604Z,2.00
2022-08-03T15:00:47.501Z,1.30
2022-08-03T15:03:16.743Z,1.52
2022-08-03T15:05:44.262Z,1.35
2022-08-03T15:10:51.957Z,1.38
2022-08-03T15:15:49.083Z,1.23
2022-08-03T15:18:16.113Z,1.35
2022-08-03T15:20:45.365Z,1.48
2022-08-03T15:23:14.078Z,1.30
2022-08-03T15:26:30.239Z,1.23
2022-08-03T15:28:27.244Z,1.00
2022-08-03T15:30:53.866Z,1.20
2022-08-03T15:33:20.526Z,1.05
2022-08-03T15:35:47.610Z,0.98
2022-08-03T15:40:40.776Z,1.15
2022-08-03T15:43:07.480Z,1.80
2022-08-03T15:45:36.080Z,1.67
2022-08-03T15:48:04.795Z,1.98
2022-08-03T15:50:31.525Z,1.58
2022-08-03T15:52:58.055Z,1.92
2022-08-03T15:55:24.697Z,2.00
2022-08-03T15:59:09.356Z,1.20
2022-08-03T16:00:38.067Z,1.35
2022-08-03T16:03:04.745Z,1.58
2022-08-03T16:05:31.373Z,1.17
2022-08-03T16:08:02.852Z,1.00
2022-08-03T16:10:31.834Z,1.05
2022-08-03T16:13:01.429Z,1.25
2022-08-03T16:15:28.235Z,1.08
2022-08-03T16:17:54.821Z,1.85
2022-08-03T16:20:31.686Z,1.17
2022-08-03T16:23:11.627Z,0.60
2022-08-03T16:25:40.478Z,1.45
2022-08-03T16:28:13.100Z,0.77
2022-08-03T16:30:42.113Z,1.50
2022-08-03T16:33:09.094Z,0.70
2022-08-03T16:35:35.987Z,1.27
2022-08-03T16:38:09.208Z,1.27
2022-08-03T16:40:36.299Z,1.10
2022-08-03T16:43:18.594Z,1.15
2022-08-03T16:45:46.750Z,1.33
2022-08-03T16:48:13.755Z,1.10
2022-08-03T16:50:40.266Z,0.90
2022-08-03T16:53:09.014Z,0.98
2022-08-03T16:55:48.418Z,1.05
2022-08-03T16:58:19.669Z,0.90
2022-08-03T17:01:10.910Z,0.90
2022-08-03T17:03:57.460Z,1.00
2022-08-03T17:06:34.340Z,0.68
2022-08-03T17:09:01.917Z,1.00
2022-08-03T17:11:32.971Z,0.82
2022-08-03T17:14:00.004Z,0.88
2022-08-03T17:16:27.049Z,1.10
2022-08-03T17:19:04.016Z,0.95
2022-08-03T17:21:32.450Z,1.05
2022-08-03T17:24:35.611Z,0.93
2022-08-03T17:27:23.155Z,1.38
2022-08-03T17:30:00.993Z,0.95
2022-08-03T17:32:32.341Z,1.42
2022-08-03T17:34:58.925Z,1.90
2022-08-03T17:37:49.962Z,1.70
2022-08-03T17:40:18.000Z,1.20
2022-08-03T17:42:46.257Z,1.70
2022-08-03T17:45:17.739Z,1.27
2022-08-03T17:47:45.522Z,1.30
2022-08-03T17:50:28.875Z,1.00
2022-08-03T17:53:07.114Z,1.25
2022-08-03T17:55:55.495Z,1.25
2022-08-03T17:58:41.434Z,1.20
2022-08-03T18:02:00.694Z,0.93
2022-08-03T18:04:21.820Z,1.35
2022-08-03T18:06:59.666Z,1.80
2022-08-03T18:10:03.838Z,0.90
2022-08-03T18:12:26.997Z,1.17
2022-08-03T18:15:01.340Z,1.23
2022-08-03T18:17:55.887Z,0.88
2022-08-03T18:20:34.772Z,0.95
2022-08-03T18:23:08.675Z,1.38
2022-08-03T18:25:45.337Z,1.20
2022-08-03T18:28:16.332Z,1.10
2022-08-03T18:30:54.688Z,1.17
2022-08-03T18:34:19.211Z,1.10
2022-08-03T18:36:21.793Z,1.10
2022-08-03T18:39:05.296Z,1.00
2022-08-03T18:41:34.781Z,1.45
2022-08-03T18:44:09.548Z,1.23
2022-08-03T18:47:22.864Z,1.08
2022-08-03T18:50:27.004Z,0.93
2022-08-03T18:54:02.159Z,1.02
2022-08-03T18:56:26.920Z,0.93
2022-08-03T18:59:15.797Z,0.80
2022-08-03T19:02:01.012Z,1.40
2022-08-03T19:04:35.456Z,1.17
2022-08-03T19:07:07.013Z,1.00
2022-08-03T19:09:43.121Z,1.17
2022-08-03T19:12:30.851Z,1.35
2022-08-03T19:15:04.958Z,1.05
2022-08-03T19:17:36.029Z,1.38
2022-08-03T19:20:08.884Z,1.48
2022-08-03T19:22:37.973Z,1.17
2022-08-03T19:25:06.951Z,1.60
2022-08-03T19:27:39.772Z,2.83
2022-08-03T19:30:21.852Z,2.28
2022-08-03T19:32:54.229Z,2.42
2022-08-03T19:35:51.678Z,2.20
2022-08-03T19:38:09.048Z,1.88
2022-08-03T19:40:42.114Z,2.20
2022-08-03T19:43:32.950Z,3.72
2022-08-03T19:46:16.380Z,4.28
2022-08-03T19:48:51.909Z,4.00
2022-08-03T19:51:20.327Z,3.50
2022-08-03T19:54:09.449Z,2.47
2022-08-03T19:56:46.233Z,2.60
2022-08-03T19:59:16.058Z,2.38
2022-08-03T20:01:50.447Z,2.10
2022-08-03T20:04:17.681Z,1.90
2022-08-03T20:06:47.961Z,1.60
2022-08-03T20:09:18.090Z,1.50
2022-08-03T20:11:45.117Z,1.60
2022-08-03T20:16:59.094Z,1.35
2022-08-03T20:19:32.732Z,1.20
2022-08-03T20:22:01.973Z,1.33
2022-08-03T20:24:34.341Z,1.55
2022-08-03T20:27:03.644Z,1.23
2022-08-03T20:30:06.355Z,1.50
2022-08-03T20:32:25.368Z,1.42
2022-08-03T20:34:52.938Z,1.60
2022-08-03T20:37:19.792Z,1.85
2022-08-03T20:39:48.168Z,1.58
2022-08-03T20:42:21.605Z,1.13
2022-08-03T20:45:04.554Z,1.23
2022-08-03T20:47:36.769Z,1.45
2022-08-03T20:50:16.845Z,1.30
2022-08-03T20:52:43.996Z,1.80
2022-08-03T20:55:16.935Z,1.42
2022-08-03T20:57:43.557Z,1.70
2022-08-03T21:00:19.455Z,1.55
2022-08-03T21:02:48.665Z,1.95
2022-08-03T21:05:15.222Z,1.55
2022-08-03T21:08:05.126Z,1.83
2022-08-03T21:10:37.847Z,1.33
2022-08-03T21:13:03.679Z,1.20
2022-08-03T21:13:24.664Z,1.35
2022-08-03T21:16:11.593Z,1.20
2022-08-03T21:18:48.802Z,1.20
2022-08-03T21:21:18.097Z,1.73
2022-08-03T21:24:05.060Z,1.52
2022-08-03T21:26:33.657Z,1.50
2022-08-03T21:29:03.271Z,1.45
2022-08-03T21:31:29.963Z,1.50
2022-08-03T21:33:59.532Z,1.58
2022-08-03T21:36:27.919Z,1.70
2022-08-03T21:38:55.909Z,1.70
2022-08-03T21:41:23.511Z,1.60
2022-08-03T21:43:50.008Z,1.52
2022-08-03T21:46:19.361Z,1.65
2022-08-03T21:48:48.493Z,1.65
2022-08-03T21:51:17.344Z,1.73
2022-08-03T21:54:02.978Z,1.70
2022-08-03T21:56:51.251Z,1.75
2022-08-03T21:59:20.255Z,1.52
2022-08-03T22:01:48.824Z,1.63
2022-08-03T22:04:45.922Z,2.25
2022-08-03T22:07:07.473Z,1.65
2022-08-03T22:09:35.228Z,1.95
2022-08-03T22:12:01.733Z,1.80
2022-08-03T22:14:28.989Z,2.13
2022-08-03T22:16:56.279Z,1.52
2022-08-03T22:19:22.694Z,2.03
2022-08-03T22:21:49.784Z,1.60
2022-08-03T22:24:19.641Z,1.55
2022-08-03T22:27:09.716Z,1.67
2022-08-03T22:29:39.567Z,1.40
2022-08-03T22:32:06.941Z,1.80
2022-08-03T22:34:34.260Z,1.70
2022-08-03T22:37:04.797Z,1.73
2022-08-03T22:39:32.445Z,1.98
2022-08-03T22:41:59.438Z,2.38
2022-08-03T22:44:27.480Z,1.65
2022-08-03T22:46:55.431Z,2.13
2022-08-03T22:49:22.333Z,2.08
2022-08-03T22:51:51.567Z,1.40
2022-08-03T22:54:18.088Z,1.83
2022-08-03T22:56:46.916Z,1.80
2022-08-03T22:59:40.858Z,1.60
2022-08-03T23:02:20.264Z,1.55
2022-08-03T23:04:54.342Z,2.03
2022-08-03T23:07:27.829Z,2.00
2022-08-03T23:09:56.214Z,1.58
2022-08-03T23:12:24.041Z,1.88
2022-08-03T23:14:56.188Z,1.90
2022-08-03T23:17:24.059Z,1.70
2022-08-03T23:20:12.450Z,2.78
2022-08-03T23:22:42.890Z,2.40
2022-08-03T23:25:10.241Z,1.98
2022-08-03T23:27:40.256Z,1.70
2022-08-03T23:30:08.971Z,2.20
2022-08-03T23:32:36.557Z,1.95
2022-08-03T23:36:22.620Z,1.90
2022-08-03T23:38:22.448Z,1.98
2022-08-03T23:40:51.239Z,1.80
2022-08-03T23:43:39.884Z,2.15
2022-08-03T23:46:08.927Z,1.85
2022-08-03T23:51:34.660Z,1.77
2022-08-03T23:54:31.108Z,2.05
2022-08-03T23:57:31.815Z,1.98
